sensor_id;sensor_type;location;lat;lon;timestamp;P1;durP1;ratioP1;P2;durP2;ratioP2
68765;SDS011;55756;45.582;11.484;2023-04-01T00:00:51;54.15;;;37.72;;
68765;SDS011;55756;45.582;11.484;2023-04-01T00:03:18;53.15;;;37.97;;
68765;SDS011;55756;45.582;11.484;2023-04-01T00:05:44;57.25;;;37.88;;
68765;SDS011;55756;45.582;11.484;2023-04-01T00:08:10;57.75;;;39.58;;
68765;SDS011;55756;45.582;11.484;2023-04-01T00:10:36;65.05;;;39.50;;
68765;SDS011;55756;45.582;11.484;2023-04-01T00:13:02;51.42;;;38.85;;
68765;SDS011;55756;45.582;11.484;2023-04-01T00:15:28;55.03;;;39.67;;
68765;SDS011;55756;45.582;11.484;2023-04-01T00:17:54;53.22;;;39.08;;
68765;SDS011;55756;45.582;11.484;2023-04-01T00:20:20;54.33;;;38.45;;
68765;SDS011;55756;45.582;11.484;2023-04-01T00:22:46;60.35;;;38.67;;
68765;SDS011;55756;45.582;11.484;2023-04-01T00:25:12;51.30;;;38.00;;
68765;SDS011;55756;45.582;11.484;2023-04-01T00:27:38;51.55;;;38.15;;
68765;SDS011;55756;45.582;11.484;2023-04-01T00:30:04;57.85;;;39.42;;
68765;SDS011;55756;45.582;11.484;2023-04-01T00:32:30;53.70;;;38.75;;
68765;SDS011;55756;45.582;11.484;2023-04-01T00:34:56;56.45;;;38.45;;
68765;SDS011;55756;45.582;11.484;2023-04-01T00:37:24;56.95;;;37.72;;
68765;SDS011;55756;45.582;11.484;2023-04-01T00:39:51;57.03;;;38.17;;
68765;SDS011;55756;45.582;11.484;2023-04-01T00:42:17;53.75;;;37.75;;
68765;SDS011;55756;45.582;11.484;2023-04-01T00:44:46;56.80;;;38.55;;
68765;SDS011;55756;45.582;11.484;2023-04-01T00:47:15;53.85;;;38.88;;
68765;SDS011;55756;45.582;11.484;2023-04-01T00:49:42;58.42;;;39.88;;
68765;SDS011;55756;45.582;11.484;2023-04-01T00:52:19;54.13;;;37.90;;
68765;SDS011;55756;45.582;11.484;2023-04-01T00:54:48;63.13;;;39.42;;
68765;SDS011;55756;45.582;11.484;2023-04-01T00:57:19;53.88;;;37.90;;
68765;SDS011;55756;45.582;11.484;2023-04-01T00:59:50;55.50;;;38.65;;
68765;SDS011;55756;45.582;11.484;2023-04-01T01:02:21;55.97;;;39.30;;
68765;SDS011;55756;45.582;11.484;2023-04-01T01:04:47;56.38;;;39.13;;
68765;SDS011;55756;45.582;11.484;2023-04-01T01:21:12;59.10;;;41.75;;
68765;SDS011;55756;45.582;11.484;2023-04-01T01:35:26;53.67;;;38.78;;
68765;SDS011;55756;45.582;11.484;2023-04-01T01:37:58;54.03;;;38.63;;
68765;SDS011;55756;45.582;11.484;2023-04-01T01:40:27;54.13;;;38.10;;
68765;SDS011;55756;45.582;11.484;2023-04-01T01:42:57;53.95;;;38.88;;
68765;SDS011;55756;45.582;11.484;2023-04-01T01:45:27;56.10;;;38.55;;
68765;SDS011;55756;45.582;11.484;2023-04-01T01:47:55;55.00;;;38.33;;
68765;SDS011;55756;45.582;11.484;2023-04-01T01:50:23;52.47;;;38.50;;
68765;SDS011;55756;45.582;11.484;2023-04-01T01:52:59;53.95;;;36.92;;
68765;SDS011;55756;45.582;11.484;2023-04-01T01:58:47;47.95;;;34.42;;
68765;SDS011;55756;45.582;11.484;2023-04-01T02:01:11;50.65;;;33.92;;
68765;SDS011;55756;45.582;11.484;2023-04-01T02:03:41;45.47;;;33.67;;
68765;SDS011;55756;45.582;11.484;2023-04-01T02:06:10;47.40;;;34.43;;
68765;SDS011;55756;45.582;11.484;2023-04-01T02:08:43;49.97;;;34.88;;
68765;SDS011;55756;45.582;11.484;2023-04-01T02:11:19;50.88;;;35.60;;
68765;SDS011;55756;45.582;11.484;2023-04-01T02:14:00;50.30;;;35.45;;
68765;SDS011;55756;45.582;11.484;2023-04-01T02:16:28;52.45;;;36.45;;
68765;SDS011;55756;45.582;11.484;2023-04-01T02:18:59;50.88;;;35.78;;
68765;SDS011;55756;45.582;11.484;2023-04-01T02:21:29;53.38;;;35.28;;
68765;SDS011;55756;45.582;11.484;2023-04-01T02:23:58;52.85;;;36.90;;
68765;SDS011;55756;45.582;11.484;2023-04-01T02:26:27;52.35;;;36.17;;
68765;SDS011;55756;45.582;11.484;2023-04-01T02:28:53;45.60;;;33.95;;
68765;SDS011;55756;45.582;11.484;2023-04-01T02:31:21;51.22;;;35.10;;
68765;SDS011;55756;45.582;11.484;2023-04-01T02:33:49;51.55;;;35.50;;
68765;SDS011;55756;45.582;11.484;2023-04-01T02:36:15;50.92;;;35.47;;
68765;SDS011;55756;45.582;11.484;2023-04-01T02:38:42;54.67;;;37.25;;
68765;SDS011;55756;45.582;11.484;2023-04-01T02:41:10;56.53;;;36.92;;
68765;SDS011;55756;45.582;11.484;2023-04-01T02:43:36;49.10;;;36.47;;
68765;SDS011;55756;45.582;11.484;2023-04-01T02:46:02;51.38;;;37.20;;
68765;SDS011;55756;45.582;11.484;2023-04-01T02:48:28;54.17;;;37.47;;
68765;SDS011;55756;45.582;11.484;2023-04-01T02:50:54;55.00;;;37.03;;
68765;SDS011;55756;45.582;11.484;2023-04-01T02:53:21;57.45;;;38.08;;
68765;SDS011;55756;45.582;11.484;2023-04-01T02:55:47;51.53;;;36.90;;
68765;SDS011;55756;45.582;11.484;2023-04-01T02:58:15;54.85;;;36.38;;
68765;SDS011;55756;45.582;11.484;2023-04-01T03:00:41;53.83;;;37.13;;
68765;SDS011;55756;45.582;11.484;2023-04-01T03:03:08;51.20;;;36.55;;
68765;SDS011;55756;45.582;11.484;2023-04-01T03:05:34;55.63;;;37.80;;
68765;SDS011;55756;45.582;11.484;2023-04-01T03:08:00;55.70;;;36.22;;
68765;SDS011;55756;45.582;11.484;2023-04-01T03:10:27;53.17;;;37.00;;
68765;SDS011;55756;45.582;11.484;2023-04-01T03:12:53;51.88;;;36.30;;
68765;SDS011;55756;45.582;11.484;2023-04-01T03:15:19;50.97;;;35.67;;
68765;SDS011;55756;45.582;11.484;2023-04-01T03:17:46;48.53;;;35.40;;
68765;SDS011;55756;45.582;11.484;2023-04-01T03:20:13;50.92;;;35.47;;
68765;SDS011;55756;45.582;11.484;2023-04-01T03:22:39;50.55;;;35.92;;
68765;SDS011;55756;45.582;11.484;2023-04-01T03:25:05;50.05;;;35.38;;
68765;SDS011;55756;45.582;11.484;2023-04-01T03:27:33;47.53;;;34.55;;
68765;SDS011;55756;45.582;11.484;2023-04-01T03:30:01;51.23;;;35.20;;
68765;SDS011;55756;45.582;11.484;2023-04-01T03:32:29;49.42;;;36.05;;
68765;SDS011;55756;45.582;11.484;2023-04-01T03:34:55;50.05;;;34.83;;
68765;SDS011;55756;45.582;11.484;2023-04-01T03:37:21;50.28;;;34.78;;
68765;SDS011;55756;45.582;11.484;2023-04-01T03:39:47;50.47;;;34.88;;
68765;SDS011;55756;45.582;11.484;2023-04-01T03:42:14;48.80;;;35.45;;
68765;SDS011;55756;45.582;11.484;2023-04-01T03:44:40;54.58;;;35.10;;
68765;SDS011;55756;45.582;11.484;2023-04-01T03:47:08;48.70;;;33.47;;
68765;SDS011;55756;45.582;11.484;2023-04-01T03:49:36;43.53;;;32.13;;
68765;SDS011;55756;45.582;11.484;2023-04-01T03:52:02;47.03;;;31.85;;
68765;SDS011;55756;45.582;11.484;2023-04-01T03:54:28;46.85;;;33.30;;
68765;SDS011;55756;45.582;11.484;2023-04-01T03:56:54;47.92;;;32.58;;
68765;SDS011;55756;45.582;11.484;2023-04-01T03:59:22;48.35;;;34.00;;
68765;SDS011;55756;45.582;11.484;2023-04-01T04:01:48;48.40;;;32.80;;
68765;SDS011;55756;45.582;11.484;2023-04-01T04:04:14;49.55;;;34.22;;
68765;SDS011;55756;45.582;11.484;2023-04-01T04:06:40;48.60;;;33.85;;
68765;SDS011;55756;45.582;11.484;2023-04-01T04:09:06;46.47;;;33.25;;
68765;SDS011;55756;45.582;11.484;2023-04-01T04:11:32;45.35;;;33.67;;
68765;SDS011;55756;45.582;11.484;2023-04-01T04:14:01;45.95;;;33.15;;
68765;SDS011;55756;45.582;11.484;2023-04-01T04:16:27;49.97;;;35.08;;
68765;SDS011;55756;45.582;11.484;2023-04-01T04:18:57;51.20;;;35.78;;
68765;SDS011;55756;45.582;11.484;2023-04-01T04:21:23;53.75;;;36.38;;
68765;SDS011;55756;45.582;11.484;2023-04-01T04:23:49;53.83;;;36.22;;
68765;SDS011;55756;45.582;11.484;2023-04-01T04:26:17;49.38;;;36.88;;
68765;SDS011;55756;45.582;11.484;2023-04-01T04:28:51;56.22;;;37.80;;
68765;SDS011;55756;45.582;11.484;2023-04-01T04:31:18;56.50;;;37.80;;
68765;SDS011;55756;45.582;11.484;2023-04-01T04:33:46;56.10;;;37.15;;
68765;SDS011;55756;45.582;11.484;2023-04-01T04:36:12;49.55;;;34.45;;
68765;SDS011;55756;45.582;11.484;2023-04-01T04:38:38;51.65;;;36.38;;
68765;SDS011;55756;45.582;11.484;2023-04-01T04:41:07;59.17;;;37.95;;
68765;SDS011;55756;45.582;11.484;2023-04-01T04:43:39;67.85;;;40.40;;
68765;SDS011;55756;45.582;11.484;2023-04-01T04:46:09;70.13;;;43.08;;
68765;SDS011;55756;45.582;11.484;2023-04-01T04:48:36;69.18;;;44.85;;
68765;SDS011;55756;45.582;11.484;2023-04-01T04:51:02;67.82;;;44.13;;
68765;SDS011;55756;45.582;11.484;2023-04-01T04:53:28;56.35;;;39.80;;
68765;SDS011;55756;45.582;11.484;2023-04-01T04:55:54;50.80;;;34.35;;
68765;SDS011;55756;45.582;11.484;2023-04-01T04:58:30;43.63;;;32.95;;
68765;SDS011;55756;45.582;11.484;2023-04-01T05:00:56;43.35;;;31.60;;
68765;SDS011;55756;45.582;11.484;2023-04-01T05:03:26;52.97;;;32.33;;
68765;SDS011;55756;45.582;11.484;2023-04-01T05:05:53;48.63;;;33.75;;
68765;SDS011;55756;45.582;11.484;2023-04-01T05:08:19;50.45;;;34.78;;
68765;SDS011;55756;45.582;11.484;2023-04-01T05:10:45;53.97;;;37.00;;
68765;SDS011;55756;45.582;11.484;2023-04-01T05:13:12;43.92;;;35.53;;
68765;SDS011;55756;45.582;11.484;2023-04-01T05:15:38;44.42;;;34.80;;
68765;SDS011;55756;45.582;11.484;2023-04-01T05:18:04;43.22;;;34.10;;
68765;SDS011;55756;45.582;11.484;2023-04-01T05:20:30;43.17;;;34.78;;
68765;SDS011;55756;45.582;11.484;2023-04-01T05:22:59;47.80;;;36.90;;
68765;SDS011;55756;45.582;11.484;2023-04-01T05:25:25;52.95;;;39.08;;
68765;SDS011;55756;45.582;11.484;2023-04-01T05:27:51;53.67;;;41.20;;
68765;SDS011;55756;45.582;11.484;2023-04-01T05:30:17;54.97;;;40.88;;
68765;SDS011;55756;45.582;11.484;2023-04-01T05:32:57;52.15;;;40.30;;
68765;SDS011;55756;45.582;11.484;2023-04-01T05:35:23;54.53;;;39.90;;
68765;SDS011;55756;45.582;11.484;2023-04-01T05:37:49;56.88;;;41.40;;
68765;SDS011;55756;45.582;11.484;2023-04-01T05:40:15;61.88;;;43.85;;
68765;SDS011;55756;45.582;11.484;2023-04-01T05:42:41;63.60;;;43.22;;
68765;SDS011;55756;45.582;11.484;2023-04-01T05:45:07;50.35;;;39.63;;
68765;SDS011;55756;45.582;11.484;2023-04-01T05:47:59;60.50;;;43.42;;
68765;SDS011;55756;45.582;11.484;2023-04-01T05:50:28;58.20;;;43.03;;
68765;SDS011;55756;45.582;11.484;2023-04-01T05:52:54;67.03;;;45.15;;
68765;SDS011;55756;45.582;11.484;2023-04-01T05:55:20;60.85;;;43.85;;
68765;SDS011;55756;45.582;11.484;2023-04-01T05:57:48;61.50;;;44.07;;
68765;SDS011;55756;45.582;11.484;2023-04-01T06:00:15;56.08;;;40.97;;
68765;SDS011;55756;45.582;11.484;2023-04-01T06:02:42;54.65;;;40.08;;
68765;SDS011;55756;45.582;11.484;2023-04-01T06:05:18;55.80;;;41.25;;
68765;SDS011;55756;45.582;11.484;2023-04-01T06:07:44;57.22;;;40.40;;
68765;SDS011;55756;45.582;11.484;2023-04-01T06:10:15;54.70;;;40.22;;
68765;SDS011;55756;45.582;11.484;2023-04-01T06:15:55;54.92;;;37.13;;
68765;SDS011;55756;45.582;11.484;2023-04-01T06:26:52;41.78;;;33.22;;
68765;SDS011;55756;45.582;11.484;2023-04-01T06:29:44;47.88;;;34.55;;
68765;SDS011;55756;45.582;11.484;2023-04-01T06:32:22;46.63;;;35.17;;
68765;SDS011;55756;45.582;11.484;2023-04-01T06:43:29;50.90;;;36.15;;
68765;SDS011;55756;45.582;11.484;2023-04-01T06:53:23;47.70;;;31.95;;
68765;SDS011;55756;45.582;11.484;2023-04-01T06:56:28;46.15;;;31.13;;
68765;SDS011;55756;45.582;11.484;2023-04-01T06:59:22;50.25;;;29.58;;
68765;SDS011;55756;45.582;11.484;2023-04-01T07:01:55;45.97;;;30.70;;
68765;SDS011;55756;45.582;11.484;2023-04-01T07:07:00;43.58;;;30.75;;
68765;SDS011;55756;45.582;11.484;2023-04-01T07:09:37;44.88;;;30.75;;
68765;SDS011;55756;45.582;11.484;2023-04-01T07:15:39;45.10;;;30.98;;
68765;SDS011;55756;45.582;11.484;2023-04-01T07:18:11;47.85;;;31.63;;
68765;SDS011;55756;45.582;11.484;2023-04-01T07:20:43;46.67;;;31.38;;
68765;SDS011;55756;45.582;11.484;2023-04-01T07:23:11;44.13;;;29.63;;
68765;SDS011;55756;45.582;11.484;2023-04-01T07:26:22;48.78;;;32.05;;
68765;SDS011;55756;45.582;11.484;2023-04-01T07:29:10;49.50;;;31.83;;
68765;SDS011;55756;45.582;11.484;2023-04-01T07:34:51;46.90;;;30.75;;
68765;SDS011;55756;45.582;11.484;2023-04-01T07:57:05;49.67;;;33.53;;
68765;SDS011;55756;45.582;11.484;2023-04-01T08:13:47;64.80;;;39.63;;
68765;SDS011;55756;45.582;11.484;2023-04-01T08:22:09;71.93;;;42.72;;
68765;SDS011;55756;45.582;11.484;2023-04-01T08:24:43;78.55;;;44.80;;
68765;SDS011;55756;45.582;11.484;2023-04-01T08:32:41;65.38;;;41.20;;
68765;SDS011;55756;45.582;11.484;2023-04-01T08:35:27;62.72;;;41.47;;
68765;SDS011;55756;45.582;11.484;2023-04-01T08:38:14;66.68;;;42.67;;
68765;SDS011;55756;45.582;11.484;2023-04-01T08:48:45;61.42;;;40.28;;
68765;SDS011;55756;45.582;11.484;2023-04-01T09:08:59;47.70;;;31.50;;
68765;SDS011;55756;45.582;11.484;2023-04-01T09:28:09;49.03;;;32.95;;
68765;SDS011;55756;45.582;11.484;2023-04-01T09:37:00;46.97;;;28.92;;
68765;SDS011;55756;45.582;11.484;2023-04-01T09:40:15;40.88;;;28.88;;
68765;SDS011;55756;45.582;11.484;2023-04-01T09:45:45;44.05;;;28.40;;
68765;SDS011;55756;45.582;11.484;2023-04-01T10:14:05;37.15;;;25.05;;
68765;SDS011;55756;45.582;11.484;2023-04-01T10:25:26;39.10;;;24.45;;
68765;SDS011;55756;45.582;11.484;2023-04-01T10:30:56;40.25;;;25.80;;
68765;SDS011;55756;45.582;11.484;2023-04-01T10:36:50;40.60;;;26.85;;
68765;SDS011;55756;45.582;11.484;2023-04-01T10:45:57;37.53;;;24.30;;
68765;SDS011;55756;45.582;11.484;2023-04-01T10:48:40;34.63;;;24.00;;
68765;SDS011;55756;45.582;11.484;2023-04-01T10:56:55;35.15;;;21.70;;
68765;SDS011;55756;45.582;11.484;2023-04-01T11:23:06;32.17;;;20.70;;
68765;SDS011;55756;45.582;11.484;2023-04-01T11:25:46;34.08;;;20.88;;
68765;SDS011;55756;45.582;11.484;2023-04-01T11:34:22;30.40;;;21.67;;
68765;SDS011;55756;45.582;11.484;2023-04-01T11:40:19;29.77;;;20.67;;
68765;SDS011;55756;45.582;11.484;2023-04-01T11:43:29;30.85;;;21.10;;
68765;SDS011;55756;45.582;11.484;2023-04-01T12:18:55;31.77;;;21.45;;
68765;SDS011;55756;45.582;11.484;2023-04-01T12:27:14;35.47;;;22.55;;
68765;SDS011;55756;45.582;11.484;2023-04-01T12:38:36;31.90;;;22.38;;
68765;SDS011;55756;45.582;11.484;2023-04-01T12:41:22;33.42;;;23.25;;
68765;SDS011;55756;45.582;11.484;2023-04-01T12:47:07;32.28;;;22.10;;
68765;SDS011;55756;45.582;11.484;2023-04-01T13:00:30;33.38;;;21.25;;
68765;SDS011;55756;45.582;11.484;2023-04-01T13:05:58;30.85;;;20.67;;
68765;SDS011;55756;45.582;11.484;2023-04-01T13:08:52;29.13;;;20.63;;
68765;SDS011;55756;45.582;11.484;2023-04-01T13:17:34;32.03;;;20.73;;
68765;SDS011;55756;45.582;11.484;2023-04-01T13:28:06;30.85;;;22.13;;
68765;SDS011;55756;45.582;11.484;2023-04-01T13:30:43;31.23;;;20.60;;
68765;SDS011;55756;45.582;11.484;2023-04-01T13:33:18;32.00;;;20.80;;
68765;SDS011;55756;45.582;11.484;2023-04-01T13:44:09;30.50;;;20.17;;
68765;SDS011;55756;45.582;11.484;2023-04-01T13:46:54;30.50;;;20.20;;
68765;SDS011;55756;45.582;11.484;2023-04-01T13:49:46;27.08;;;18.85;;
68765;SDS011;55756;45.582;11.484;2023-04-01T13:53:00;29.63;;;19.52;;
68765;SDS011;55756;45.582;11.484;2023-04-01T13:58:23;29.73;;;18.48;;
68765;SDS011;55756;45.582;11.484;2023-04-01T14:01:09;30.08;;;18.27;;
68765;SDS011;55756;45.582;11.484;2023-04-01T14:09:31;25.88;;;17.60;;
68765;SDS011;55756;45.582;11.484;2023-04-01T14:14:59;24.15;;;15.73;;
68765;SDS011;55756;45.582;11.484;2023-04-01T14:20:30;23.70;;;14.35;;
68765;SDS011;55756;45.582;11.484;2023-04-01T14:23:05;22.10;;;13.93;;
68765;SDS011;55756;45.582;11.484;2023-04-01T14:34:03;26.10;;;15.02;;
68765;SDS011;55756;45.582;11.484;2023-04-01T14:36:52;22.73;;;15.38;;
68765;SDS011;55756;45.582;11.484;2023-04-01T14:45:02;24.35;;;14.85;;
68765;SDS011;55756;45.582;11.484;2023-04-01T14:47:47;22.33;;;14.80;;
68765;SDS011;55756;45.582;11.484;2023-04-01T14:58:10;24.88;;;13.77;;
68765;SDS011;55756;45.582;11.484;2023-04-01T15:03:19;19.42;;;12.30;;
68765;SDS011;55756;45.582;11.484;2023-04-01T15:05:51;19.25;;;12.57;;
68765;SDS011;55756;45.582;11.484;2023-04-01T15:19:37;20.10;;;10.25;;
68765;SDS011;55756;45.582;11.484;2023-04-01T15:22:36;17.80;;;9.52;;
68765;SDS011;55756;45.582;11.484;2023-04-01T15:25:20;17.45;;;9.45;;
68765;SDS011;55756;45.582;11.484;2023-04-01T15:38:50;13.40;;;7.22;;
68765;SDS011;55756;45.582;11.484;2023-04-01T15:41:38;15.43;;;7.35;;
68765;SDS011;55756;45.582;11.484;2023-04-01T15:46:56;12.25;;;5.85;;
68765;SDS011;55756;45.582;11.484;2023-04-01T15:52:06;11.10;;;5.10;;
68765;SDS011;55756;45.582;11.484;2023-04-01T16:03:54;11.80;;;5.75;;
68765;SDS011;55756;45.582;11.484;2023-04-01T16:14:57;11.63;;;4.70;;
68765;SDS011;55756;45.582;11.484;2023-04-01T16:19:56;12.77;;;6.63;;
68765;SDS011;55756;45.582;11.484;2023-04-01T16:22:53;17.33;;;8.02;;
68765;SDS011;55756;45.582;11.484;2023-04-01T16:36:28;18.98;;;10.45;;
68765;SDS011;55756;45.582;11.484;2023-04-01T16:44:50;20.92;;;13.07;;
68765;SDS011;55756;45.582;11.484;2023-04-01T16:47:40;21.60;;;12.60;;
68765;SDS011;55756;45.582;11.484;2023-04-01T16:50:15;26.02;;;14.82;;
68765;SDS011;55756;45.582;11.484;2023-04-01T16:52:53;23.98;;;14.43;;
68765;SDS011;55756;45.582;11.484;2023-04-01T16:55:30;26.45;;;15.55;;
68765;SDS011;55756;45.582;11.484;2023-04-01T16:58:07;28.85;;;14.65;;
68765;SDS011;55756;45.582;11.484;2023-04-01T17:00:49;28.52;;;15.05;;
68765;SDS011;55756;45.582;11.484;2023-04-01T17:06:06;23.88;;;14.95;;
68765;SDS011;55756;45.582;11.484;2023-04-01T17:09:13;26.67;;;15.43;;
68765;SDS011;55756;45.582;11.484;2023-04-01T17:14:28;30.42;;;15.68;;
68765;SDS011;55756;45.582;11.484;2023-04-01T17:23:00;29.42;;;19.42;;
68765;SDS011;55756;45.582;11.484;2023-04-01T17:28:24;29.23;;;16.98;;
68765;SDS011;55756;45.582;11.484;2023-04-01T17:33:43;25.92;;;16.75;;
68765;SDS011;55756;45.582;11.484;2023-04-01T17:47:31;42.50;;;27.07;;
68765;SDS011;55756;45.582;11.484;2023-04-01T17:52:56;36.97;;;22.35;;
68765;SDS011;55756;45.582;11.484;2023-04-01T17:55:34;34.90;;;21.33;;
68765;SDS011;55756;45.582;11.484;2023-04-01T17:58:17;32.75;;;20.20;;
68765;SDS011;55756;45.582;11.484;2023-04-01T18:04:06;34.00;;;19.80;;
68765;SDS011;55756;45.582;11.484;2023-04-01T18:12:18;32.65;;;20.02;;
68765;SDS011;55756;45.582;11.484;2023-04-01T18:22:59;28.45;;;19.38;;
68765;SDS011;55756;45.582;11.484;2023-04-01T18:36:19;28.77;;;18.13;;
68765;SDS011;55756;45.582;11.484;2023-04-01T18:39:00;28.25;;;18.63;;
68765;SDS011;55756;45.582;11.484;2023-04-01T18:47:07;27.88;;;17.63;;
68765;SDS011;55756;45.582;11.484;2023-04-01T18:55:53;28.42;;;18.33;;
68765;SDS011;55756;45.582;11.484;2023-04-01T19:04:02;29.33;;;18.55;;
68765;SDS011;55756;45.582;11.484;2023-04-01T19:06:41;29.55;;;18.27;;
68765;SDS011;55756;45.582;11.484;2023-04-01T19:09:30;28.90;;;19.05;;
68765;SDS011;55756;45.582;11.484;2023-04-01T19:17:10;28.70;;;18.38;;
68765;SDS011;55756;45.582;11.484;2023-04-01T19:19:55;27.02;;;18.17;;
68765;SDS011;55756;45.582;11.484;2023-04-01T19:28:25;26.70;;;18.25;;
68765;SDS011;55756;45.582;11.484;2023-04-01T19:31:07;27.60;;;17.95;;
68765;SDS011;55756;45.582;11.484;2023-04-01T19:33:43;28.10;;;18.35;;
68765;SDS011;55756;45.582;11.484;2023-04-01T19:42:04;29.27;;;19.23;;
68765;SDS011;55756;45.582;11.484;2023-04-01T19:47:38;29.17;;;20.27;;
68765;SDS011;55756;45.582;11.484;2023-04-01T19:50:27;31.90;;;19.58;;
68765;SDS011;55756;45.582;11.484;2023-04-01T19:52:54;30.30;;;18.92;;
68765;SDS011;55756;45.582;11.484;2023-04-01T20:00:23;30.98;;;20.52;;
68765;SDS011;55756;45.582;11.484;2023-04-01T20:05:50;30.35;;;19.73;;
68765;SDS011;55756;45.582;11.484;2023-04-01T20:12:14;27.95;;;19.85;;
68765;SDS011;55756;45.582;11.484;2023-04-01T20:22:38;38.83;;;27.75;;
68765;SDS011;55756;45.582;11.484;2023-04-01T20:30:46;33.50;;;21.15;;
68765;SDS011;55756;45.582;11.484;2023-04-01T20:36:36;28.15;;;19.17;;
68765;SDS011;55756;45.582;11.484;2023-04-01T20:39:29;29.60;;;19.23;;
68765;SDS011;55756;45.582;11.484;2023-04-01T20:42:16;29.92;;;19.77;;
68765;SDS011;55756;45.582;11.484;2023-04-01T20:53:16;25.73;;;18.63;;
68765;SDS011;55756;45.582;11.484;2023-04-01T21:01:36;32.28;;;20.30;;
68765;SDS011;55756;45.582;11.484;2023-04-01T21:04:30;29.20;;;19.55;;
68765;SDS011;55756;45.582;11.484;2023-04-01T21:55:47;30.52;;;22.42;;
68765;SDS011;55756;45.582;11.484;2023-04-01T22:00:38;33.60;;;21.95;;
68765;SDS011;55756;45.582;11.484;2023-04-01T22:21:55;35.75;;;22.85;;
68765;SDS011;55756;45.582;11.484;2023-04-01T22:24:40;30.23;;;22.23;;
68765;SDS011;55756;45.582;11.484;2023-04-01T22:30:14;33.33;;;22.80;;
68765;SDS011;55756;45.582;11.484;2023-04-01T22:32:47;34.00;;;22.55;;
68765;SDS011;55756;45.582;11.484;2023-04-01T22:41:29;33.78;;;23.08;;
68765;SDS011;55756;45.582;11.484;2023-04-01T22:43:58;34.13;;;23.48;;
68765;SDS011;55756;45.582;11.484;2023-04-01T22:51:57;35.85;;;25.85;;
68765;SDS011;55756;45.582;11.484;2023-04-01T22:54:45;35.85;;;24.83;;
68765;SDS011;55756;45.582;11.484;2023-04-01T22:58:03;37.85;;;25.17;;
68765;SDS011;55756;45.582;11.484;2023-04-01T23:00:21;39.40;;;26.13;;
68765;SDS011;55756;45.582;11.484;2023-04-01T23:03:04;39.55;;;26.30;;
68765;SDS011;55756;45.582;11.484;2023-04-01T23:05:39;37.90;;;26.45;;
68765;SDS011;55756;45.582;11.484;2023-04-01T23:10:52;36.58;;;26.08;;
68765;SDS011;55756;45.582;11.484;2023-04-01T23:13:24;37.33;;;25.15;;
68765;SDS011;55756;45.582;11.484;2023-04-01T23:16:05;34.80;;;25.15;;
68765;SDS011;55756;45.582;11.484;2023-04-01T23:21:30;38.65;;;25.92;;
68765;SDS011;55756;45.582;11.484;2023-04-01T23:24:41;37.75;;;26.02;;
68765;SDS011;55756;45.582;11.484;2023-04-01T23:27:37;35.53;;;24.60;;
68765;SDS011;55756;45.582;11.484;2023-04-01T23:30:10;37.08;;;25.17;;
68765;SDS011;55756;45.582;11.484;2023-04-01T23:33:50;35.20;;;24.38;;
68765;SDS011;55756;45.582;11.484;2023-04-01T23:35:56;33.90;;;24.65;;
68765;SDS011;55756;45.582;11.484;2023-04-01T23:38:40;35.28;;;25.10;;
68765;SDS011;55756;45.582;11.484;2023-04-01T23:41:09;34.50;;;25.42;;
68765;SDS011;55756;45.582;11.484;2023-04-01T23:44:00;32.28;;;24.27;;
68765;SDS011;55756;45.582;11.484;2023-04-01T23:46:29;36.92;;;26.08;;
68765;SDS011;55756;45.582;11.484;2023-04-01T23:48:57;35.72;;;26.08;;
68765;SDS011;55756;45.582;11.484;2023-04-01T23:51:25;37.97;;;25.73;;
68765;SDS011;55756;45.582;11.484;2023-04-01T23:54:01;36.55;;;25.80;;
68765;SDS011;55756;45.582;11.484;2023-04-01T23:56:39;35.80;;;25.02;;
68765;SDS011;55756;45.582;11.484;2023-04-01T23:59:13;35.20;;;25.20;;
